sensor_id;sensor_type;location;lat;lon;timestamp;pressure;altitude;pressure_sealevel;temperature;humidity
80678;BME280;70042;52.494;5.502;2023-08-17T00:01:07;102341.19;;;22.35;63.58
80678;BME280;70042;52.494;5.502;2023-08-17T00:03:32;102345.75;;;22.30;63.54
80678;BME280;70042;52.494;5.502;2023-08-17T00:05:57;102337.75;;;22.30;63.36
80678;BME280;70042;52.494;5.502;2023-08-17T00:08:23;102351.00;;;22.33;63.50
80678;BME280;70042;52.494;5.502;2023-08-17T00:10:48;102341.25;;;22.32;63.40
80678;BME280;70042;52.494;5.502;2023-08-17T00:13:13;102349.25;;;22.32;63.63
80678;BME280;70042;52.494;5.502;2023-08-17T00:15:39;102347.44;;;22.34;63.31
80678;BME280;70042;52.494;5.502;2023-08-17T00:18:05;102343.91;;;22.32;63.42
80678;BME280;70042;52.494;5.502;2023-08-17T00:20:30;102347.47;;;22.32;63.55
80678;BME280;70042;52.494;5.502;2023-08-17T00:22:55;102344.81;;;22.32;63.48
80678;BME280;70042;52.494;5.502;2023-08-17T00:25:21;102346.63;;;22.30;63.58
80678;BME280;70042;52.494;5.502;2023-08-17T00:27:46;102346.59;;;22.32;63.63
80678;BME280;70042;52.494;5.502;2023-08-17T00:30:11;102342.19;;;22.31;63.76
80678;BME280;70042;52.494;5.502;2023-08-17T00:32:37;102345.75;;;22.30;63.34
80678;BME280;70042;52.494;5.502;2023-08-17T00:35:03;102335.09;;;22.30;63.40
80678;BME280;70042;52.494;5.502;2023-08-17T00:37:28;102343.09;;;22.30;63.38
80678;BME280;70042;52.494;5.502;2023-08-17T00:39:54;102343.09;;;22.28;63.85
80678;BME280;70042;52.494;5.502;2023-08-17T00:42:19;102337.84;;;22.25;63.69
80678;BME280;70042;52.494;5.502;2023-08-17T00:44:44;102337.84;;;22.25;63.83
80678;BME280;70042;52.494;5.502;2023-08-17T00:47:10;102335.28;;;22.21;63.87
80678;BME280;70042;52.494;5.502;2023-08-17T00:49:35;102329.97;;;22.21;63.79
80678;BME280;70042;52.494;5.502;2023-08-17T00:52:02;102323.75;;;22.20;63.63
80678;BME280;70042;52.494;5.502;2023-08-17T00:54:29;102326.38;;;22.22;63.55
80678;BME280;70042;52.494;5.502;2023-08-17T00:56:54;102321.13;;;22.19;63.73
80678;BME280;70042;52.494;5.502;2023-08-17T00:59:21;102318.50;;;22.17;63.74
80678;BME280;70042;52.494;5.502;2023-08-17T01:01:47;102317.69;;;22.14;63.79
80678;BME280;70042;52.494;5.502;2023-08-17T01:04:13;102314.13;;;22.13;63.98
80678;BME280;70042;52.494;5.502;2023-08-17T01:06:38;102316.81;;;22.13;64.13
80678;BME280;70042;52.494;5.502;2023-08-17T01:09:04;102319.50;;;22.12;63.93
80678;BME280;70042;52.494;5.502;2023-08-17T01:11:32;102312.34;;;22.14;63.79
80678;BME280;70042;52.494;5.502;2023-08-17T01:16:35;102316.78;;;22.15;63.69
80678;BME280;70042;52.494;5.502;2023-08-17T01:19:07;102315.00;;;22.15;63.52
80678;BME280;70042;52.494;5.502;2023-08-17T01:21:44;102307.03;;;22.15;63.58
80678;BME280;70042;52.494;5.502;2023-08-17T01:24:11;102306.09;;;22.16;63.81
80678;BME280;70042;52.494;5.502;2023-08-17T01:26:37;102314.13;;;22.15;63.54
80678;BME280;70042;52.494;5.502;2023-08-17T01:29:02;102312.34;;;22.14;63.75
80678;BME280;70042;52.494;5.502;2023-08-17T01:31:40;102317.66;;;22.15;63.30
80678;BME280;70042;52.494;5.502;2023-08-17T01:34:10;102310.53;;;22.16;63.82
80678;BME280;70042;52.494;5.502;2023-08-17T01:36:46;102312.41;;;22.11;63.87
80678;BME280;70042;52.494;5.502;2023-08-17T01:39:15;102309.81;;;22.08;63.65
80678;BME280;70042;52.494;5.502;2023-08-17T01:41:42;102313.38;;;22.07;63.87
80678;BME280;70042;52.494;5.502;2023-08-17T01:44:10;102313.44;;;22.05;63.93
80678;BME280;70042;52.494;5.502;2023-08-17T01:46:37;102308.94;;;22.09;63.76
80678;BME280;70042;52.494;5.502;2023-08-17T01:49:05;102314.25;;;22.09;63.76
80678;BME280;70042;52.494;5.502;2023-08-17T01:51:30;102316.84;;;22.12;63.58
80678;BME280;70042;52.494;5.502;2023-08-17T01:53:55;102306.19;;;22.12;63.73
80678;BME280;70042;52.494;5.502;2023-08-17T01:56:21;102312.41;;;22.11;63.90
80678;BME280;70042;52.494;5.502;2023-08-17T01:58:46;102312.41;;;22.12;63.83
80678;BME280;70042;52.494;5.502;2023-08-17T02:01:12;102315.91;;;22.13;63.51
80678;BME280;70042;52.494;5.502;2023-08-17T02:03:37;102307.03;;;22.14;63.85
80678;BME280;70042;52.494;5.502;2023-08-17T02:06:02;102297.28;;;22.13;63.35
80678;BME280;70042;52.494;5.502;2023-08-17T02:08:29;102302.66;;;22.11;63.69
80678;BME280;70042;52.494;5.502;2023-08-17T02:10:54;102308.88;;;22.10;63.82
80678;BME280;70042;52.494;5.502;2023-08-17T02:13:20;102310.72;;;22.07;63.84
80678;BME280;70042;52.494;5.502;2023-08-17T02:15:46;102312.53;;;22.05;63.89
80678;BME280;70042;52.494;5.502;2023-08-17T02:18:11;102316.97;;;22.06;63.83
80678;BME280;70042;52.494;5.502;2023-08-17T02:20:37;102317.00;;;22.04;63.75
80678;BME280;70042;52.494;5.502;2023-08-17T02:23:02;102318.75;;;22.04;63.83
80678;BME280;70042;52.494;5.502;2023-08-17T02:25:28;102320.47;;;22.06;63.77
80678;BME280;70042;52.494;5.502;2023-08-17T02:28:01;102314.31;;;22.06;63.87
80678;BME280;70042;52.494;5.502;2023-08-17T02:30:27;102302.78;;;22.05;63.79
80678;BME280;70042;52.494;5.502;2023-08-17T02:32:52;102302.72;;;22.07;63.84
80678;BME280;70042;52.494;5.502;2023-08-17T02:35:18;102301.91;;;22.05;63.97
80678;BME280;70042;52.494;5.502;2023-08-17T02:37:43;102302.78;;;22.04;63.93
80678;BME280;70042;52.494;5.502;2023-08-17T02:40:09;102298.47;;;22.00;63.83
80678;BME280;70042;52.494;5.502;2023-08-17T02:42:34;102300.19;;;22.01;64.08
80678;BME280;70042;52.494;5.502;2023-08-17T02:45:00;102298.47;;;22.00;64.03
80678;BME280;70042;52.494;5.502;2023-08-17T02:47:25;102293.16;;;22.00;63.86
80678;BME280;70042;52.494;5.502;2023-08-17T02:49:50;102287.88;;;21.97;64.01
80678;BME280;70042;52.494;5.502;2023-08-17T02:52:16;102294.09;;;21.96;64.01
80678;BME280;70042;52.494;5.502;2023-08-17T02:54:41;102289.66;;;21.96;63.96
80678;BME280;70042;52.494;5.502;2023-08-17T02:57:07;102286.06;;;21.99;63.96
80678;BME280;70042;52.494;5.502;2023-08-17T02:59:33;102287.81;;;22.00;64.13
80678;BME280;70042;52.494;5.502;2023-08-17T03:01:58;102278.06;;;21.99;63.97
80678;BME280;70042;52.494;5.502;2023-08-17T03:04:23;102281.63;;;21.99;63.81
80678;BME280;70042;52.494;5.502;2023-08-17T03:06:49;102277.19;;;21.98;64.12
80678;BME280;70042;52.494;5.502;2023-08-17T03:09:15;102275.53;;;21.93;63.99
80678;BME280;70042;52.494;5.502;2023-08-17T03:11:40;102280.03;;;21.89;64.53
80678;BME280;70042;52.494;5.502;2023-08-17T03:14:05;102273.84;;;21.89;64.37
80678;BME280;70042;52.494;5.502;2023-08-17T03:16:31;102279.19;;;21.86;64.36
80678;BME280;70042;52.494;5.502;2023-08-17T03:18:56;102277.47;;;21.81;64.46
80678;BME280;70042;52.494;5.502;2023-08-17T03:21:22;102273.09;;;21.80;64.63
80678;BME280;70042;52.494;5.502;2023-08-17T03:23:48;102281.91;;;21.81;64.61
80678;BME280;70042;52.494;5.502;2023-08-17T03:26:13;102284.56;;;21.83;64.56
80678;BME280;70042;52.494;5.502;2023-08-17T03:28:39;102274.81;;;21.83;64.51
80678;BME280;70042;52.494;5.502;2023-08-17T03:31:06;102283.69;;;21.82;64.46
80678;BME280;70042;52.494;5.502;2023-08-17T03:33:31;102280.13;;;21.83;64.40
80678;BME280;70042;52.494;5.502;2023-08-17T03:35:57;102295.22;;;21.83;64.33
80678;BME280;70042;52.494;5.502;2023-08-17T03:38:22;102280.22;;;21.78;64.47
80678;BME280;70042;52.494;5.502;2023-08-17T03:40:48;102287.38;;;21.75;64.53
80678;BME280;70042;52.494;5.502;2023-08-17T03:43:13;102293.56;;;21.75;64.52
80678;BME280;70042;52.494;5.502;2023-08-17T03:45:40;102296.28;;;21.74;64.39
80678;BME280;70042;52.494;5.502;2023-08-17T03:48:06;102285.63;;;21.74;64.39
80678;BME280;70042;52.494;5.502;2023-08-17T03:50:32;102292.75;;;21.72;64.55
80678;BME280;70042;52.494;5.502;2023-08-17T03:52:57;102292.78;;;21.70;64.69
80678;BME280;70042;52.494;5.502;2023-08-17T03:55:22;102292.78;;;21.70;64.80
80678;BME280;70042;52.494;5.502;2023-08-17T03:57:48;102286.56;;;21.71;64.69
80678;BME280;70042;52.494;5.502;2023-08-17T04:00:13;102279.50;;;21.70;64.91
80678;BME280;70042;52.494;5.502;2023-08-17T04:02:39;102288.31;;;21.72;64.59
80678;BME280;70042;52.494;5.502;2023-08-17T04:05:04;102282.16;;;21.70;64.62
80678;BME280;70042;52.494;5.502;2023-08-17T04:07:30;102280.38;;;21.69;64.74
80678;BME280;70042;52.494;5.502;2023-08-17T04:09:55;102275.06;;;21.69;64.43
80678;BME280;70042;52.494;5.502;2023-08-17T04:12:20;102278.63;;;21.68;64.73
80678;BME280;70042;52.494;5.502;2023-08-17T04:14:46;102288.44;;;21.66;64.56
80678;BME280;70042;52.494;5.502;2023-08-17T04:17:11;102284.00;;;21.67;64.69
80678;BME280;70042;52.494;5.502;2023-08-17T04:21:34;102284.00;;;21.65;64.54
80678;BME280;70042;52.494;5.502;2023-08-17T04:23:59;102284.94;;;21.64;64.70
80678;BME280;70042;52.494;5.502;2023-08-17T04:26:24;102291.13;;;21.65;65.04
80678;BME280;70042;52.494;5.502;2023-08-17T04:28:50;102288.47;;;21.63;64.69
80678;BME280;70042;52.494;5.502;2023-08-17T04:31:16;102286.72;;;21.64;64.69
80678;BME280;70042;52.494;5.502;2023-08-17T04:33:42;102286.72;;;21.62;64.83
80678;BME280;70042;52.494;5.502;2023-08-17T04:36:07;102281.41;;;21.62;64.82
80678;BME280;70042;52.494;5.502;2023-08-17T04:38:33;102279.59;;;21.64;64.99
80678;BME280;70042;52.494;5.502;2023-08-17T04:40:58;102268.03;;;21.65;64.52
80678;BME280;70042;52.494;5.502;2023-08-17T04:43:23;102272.53;;;21.63;64.85
80678;BME280;70042;52.494;5.502;2023-08-17T04:45:49;102277.84;;;21.63;64.74
80678;BME280;70042;52.494;5.502;2023-08-17T04:48:14;102276.97;;;21.63;64.74
80678;BME280;70042;52.494;5.502;2023-08-17T04:50:40;102269.03;;;21.61;64.62
80678;BME280;70042;52.494;5.502;2023-08-17T04:53:05;102273.41;;;21.62;64.62
80678;BME280;70042;52.494;5.502;2023-08-17T04:55:31;102270.81;;;21.61;64.78
80678;BME280;70042;52.494;5.502;2023-08-17T04:57:59;102263.72;;;21.61;64.80
80678;BME280;70042;52.494;5.502;2023-08-17T05:00:25;102266.38;;;21.61;64.88
80678;BME280;70042;52.494;5.502;2023-08-17T05:02:56;102263.72;;;21.60;64.61
80678;BME280;70042;52.494;5.502;2023-08-17T05:05:22;102269.94;;;21.60;64.80
80678;BME280;70042;52.494;5.502;2023-08-17T05:07:48;102269.94;;;21.60;64.88
80678;BME280;70042;52.494;5.502;2023-08-17T05:10:13;102268.16;;;21.59;64.57
80678;BME280;70042;52.494;5.502;2023-08-17T05:12:39;102267.31;;;21.59;64.67
80678;BME280;70042;52.494;5.502;2023-08-17T05:15:04;102267.25;;;21.60;64.84
80678;BME280;70042;52.494;5.502;2023-08-17T05:17:30;102277.00;;;21.61;64.95
80678;BME280;70042;52.494;5.502;2023-08-17T05:19:55;102283.22;;;21.62;64.83
80678;BME280;70042;52.494;5.502;2023-08-17T05:22:21;102269.94;;;21.60;64.83
80678;BME280;70042;52.494;5.502;2023-08-17T05:24:46;102277.03;;;21.60;64.95
80678;BME280;70042;52.494;5.502;2023-08-17T05:27:12;102279.72;;;21.58;64.93
80678;BME280;70042;52.494;5.502;2023-08-17T05:29:37;102280.59;;;21.59;64.84
80678;BME280;70042;52.494;5.502;2023-08-17T05:32:03;102277.97;;;21.57;64.72
80678;BME280;70042;52.494;5.502;2023-08-17T05:34:28;102278.84;;;21.58;64.91
80678;BME280;70042;52.494;5.502;2023-08-17T05:36:54;102279.72;;;21.58;64.81
80678;BME280;70042;52.494;5.502;2023-08-17T05:39:19;102274.41;;;21.58;64.70
80678;BME280;70042;52.494;5.502;2023-08-17T05:41:45;102279.72;;;21.58;64.62
80678;BME280;70042;52.494;5.502;2023-08-17T05:44:10;102283.28;;;21.59;64.76
80678;BME280;70042;52.494;5.502;2023-08-17T05:46:36;102274.41;;;21.58;64.87
80678;BME280;70042;52.494;5.502;2023-08-17T05:49:02;102269.09;;;21.58;64.81
80678;BME280;70042;52.494;5.502;2023-08-17T05:51:27;102273.47;;;21.59;64.85
80678;BME280;70042;52.494;5.502;2023-08-17T05:53:53;102276.13;;;21.59;64.89
80678;BME280;70042;52.494;5.502;2023-08-17T05:56:18;102270.81;;;21.59;64.74
80678;BME280;70042;52.494;5.502;2023-08-17T05:58:44;102277.03;;;21.60;64.31
80678;BME280;70042;52.494;5.502;2023-08-17T06:01:10;102280.59;;;21.59;64.71
80678;BME280;70042;52.494;5.502;2023-08-17T06:03:37;102277.06;;;21.58;64.42
80678;BME280;70042;52.494;5.502;2023-08-17T06:06:03;102269.97;;;21.57;64.78
80678;BME280;70042;52.494;5.502;2023-08-17T06:08:28;102277.97;;;21.57;65.01
80678;BME280;70042;52.494;5.502;2023-08-17T06:10:54;102279.72;;;21.58;64.79
80678;BME280;70042;52.494;5.502;2023-08-17T06:13:20;102277.06;;;21.58;64.77
80678;BME280;70042;52.494;5.502;2023-08-17T06:15:45;102287.66;;;21.60;64.61
80678;BME280;70042;52.494;5.502;2023-08-17T06:18:10;102286.78;;;21.59;64.55
80678;BME280;70042;52.494;5.502;2023-08-17T06:20:36;102289.44;;;21.61;64.55
80678;BME280;70042;52.494;5.502;2023-08-17T06:23:01;102287.59;;;21.64;64.74
80678;BME280;70042;52.494;5.502;2023-08-17T06:25:26;102285.81;;;21.63;64.58
80678;BME280;70042;52.494;5.502;2023-08-17T06:27:52;102287.59;;;21.63;64.67
80678;BME280;70042;52.494;5.502;2023-08-17T06:30:18;102294.69;;;21.62;64.55
80678;BME280;70042;52.494;5.502;2023-08-17T06:32:43;102285.81;;;21.63;64.82
80678;BME280;70042;52.494;5.502;2023-08-17T06:35:09;102294.69;;;21.62;64.49
80678;BME280;70042;52.494;5.502;2023-08-17T06:37:35;102295.56;;;21.64;64.66
80678;BME280;70042;52.494;5.502;2023-08-17T06:40:00;102293.81;;;21.63;64.50
80678;BME280;70042;52.494;5.502;2023-08-17T06:42:26;102299.13;;;21.63;64.66
80678;BME280;70042;52.494;5.502;2023-08-17T06:44:51;102291.13;;;21.65;64.59
80678;BME280;70042;52.494;5.502;2023-08-17T06:47:17;102290.25;;;21.64;64.41
80678;BME280;70042;52.494;5.502;2023-08-17T06:49:42;102292.03;;;21.62;64.64
80678;BME280;70042;52.494;5.502;2023-08-17T06:52:07;102291.13;;;21.65;64.50
80678;BME280;70042;52.494;5.502;2023-08-17T06:54:33;102293.81;;;21.63;64.38
80678;BME280;70042;52.494;5.502;2023-08-17T06:56:58;102294.63;;;21.65;64.71
80678;BME280;70042;52.494;5.502;2023-08-17T06:59:24;102296.44;;;21.65;64.44
80678;BME280;70042;52.494;5.502;2023-08-17T07:01:49;102300.84;;;21.67;64.60
80678;BME280;70042;52.494;5.502;2023-08-17T07:04:15;102294.56;;;21.70;64.41
80678;BME280;70042;52.494;5.502;2023-08-17T07:06:40;102292.84;;;21.67;64.53
80678;BME280;70042;52.494;5.502;2023-08-17T07:09:06;102285.75;;;21.66;64.81
80678;BME280;70042;52.494;5.502;2023-08-17T07:11:32;102286.66;;;21.65;64.66
80678;BME280;70042;52.494;5.502;2023-08-17T07:13:57;102293.78;;;21.65;64.77
80678;BME280;70042;52.494;5.502;2023-08-17T07:16:23;102295.50;;;21.67;64.67
80678;BME280;70042;52.494;5.502;2023-08-17T07:18:48;102296.34;;;21.69;64.76
80678;BME280;70042;52.494;5.502;2023-08-17T07:21:14;102299.06;;;21.68;64.60
80678;BME280;70042;52.494;5.502;2023-08-17T07:23:44;102297.22;;;21.70;64.51
80678;BME280;70042;52.494;5.502;2023-08-17T07:26:09;102303.44;;;21.70;64.63
80678;BME280;70042;52.494;5.502;2023-08-17T07:28:35;102304.28;;;21.72;64.40
80678;BME280;70042;52.494;5.502;2023-08-17T07:31:00;102298.94;;;21.72;64.60
80678;BME280;70042;52.494;5.502;2023-08-17T07:33:26;102306.03;;;21.72;64.74
80678;BME280;70042;52.494;5.502;2023-08-17T07:35:51;102306.88;;;21.75;64.57
80678;BME280;70042;52.494;5.502;2023-08-17T07:38:18;102307.75;;;21.77;64.34
80678;BME280;70042;52.494;5.502;2023-08-17T07:40:43;102309.47;;;21.78;64.50
80678;BME280;70042;52.494;5.502;2023-08-17T07:43:09;102301.50;;;21.78;64.43
80678;BME280;70042;52.494;5.502;2023-08-17T07:45:34;102300.59;;;21.79;64.42
80678;BME280;70042;52.494;5.502;2023-08-17T07:47:59;102302.41;;;21.77;64.40
80678;BME280;70042;52.494;5.502;2023-08-17T07:50:25;102297.09;;;21.77;64.45
80678;BME280;70042;52.494;5.502;2023-08-17T07:52:50;102281.97;;;21.78;64.58
80678;BME280;70042;52.494;5.502;2023-08-17T07:55:15;102293.50;;;21.78;64.30
80678;BME280;70042;52.494;5.502;2023-08-17T07:57:41;102291.72;;;21.80;64.22
80678;BME280;70042;52.494;5.502;2023-08-17T08:00:07;102298.78;;;21.81;64.43
80678;BME280;70042;52.494;5.502;2023-08-17T08:02:32;102290.78;;;21.83;64.49
80678;BME280;70042;52.494;5.502;2023-08-17T08:04:58;102296.09;;;21.83;64.53
80678;BME280;70042;52.494;5.502;2023-08-17T08:07:23;102288.00;;;21.88;64.17
80678;BME280;70042;52.494;5.502;2023-08-17T08:09:48;102303.03;;;21.92;64.19
80678;BME280;70042;52.494;5.502;2023-08-17T08:12:14;102297.72;;;21.93;64.13
80678;BME280;70042;52.494;5.502;2023-08-17T08:14:39;102300.31;;;21.95;64.00
80678;BME280;70042;52.494;5.502;2023-08-17T08:17:04;102297.59;;;21.98;63.80
80678;BME280;70042;52.494;5.502;2023-08-17T08:19:30;102305.59;;;21.98;64.16
80678;BME280;70042;52.494;5.502;2023-08-17T08:21:55;102305.59;;;21.98;64.03
80678;BME280;70042;52.494;5.502;2023-08-17T08:24:27;102310.03;;;21.97;63.97
80678;BME280;70042;52.494;5.502;2023-08-17T08:26:56;102314.50;;;21.97;63.84
80678;BME280;70042;52.494;5.502;2023-08-17T08:29:22;102294.88;;;22.01;63.99
80678;BME280;70042;52.494;5.502;2023-08-17T08:31:47;102293.91;;;22.05;63.80
80678;BME280;70042;52.494;5.502;2023-08-17T08:34:12;102301.78;;;22.09;63.80
80678;BME280;70042;52.494;5.502;2023-08-17T08:36:38;102301.72;;;22.14;63.65
80678;BME280;70042;52.494;5.502;2023-08-17T08:39:03;102307.03;;;22.14;63.68
80678;BME280;70042;52.494;5.502;2023-08-17T08:41:30;102296.31;;;22.17;63.80
80678;BME280;70042;52.494;5.502;2023-08-17T08:43:56;102296.25;;;22.20;63.41
80678;BME280;70042;52.494;5.502;2023-08-17T08:46:24;102299.81;;;22.19;63.46
80678;BME280;70042;52.494;5.502;2023-08-17T08:48:52;102298.03;;;22.19;63.49
80678;BME280;70042;52.494;5.502;2023-08-17T08:51:25;102299.81;;;22.19;63.41
80678;BME280;70042;52.494;5.502;2023-08-17T08:53:57;102294.47;;;22.20;63.42
80678;BME280;70042;52.494;5.502;2023-08-17T08:56:25;102291.75;;;22.22;63.33
80678;BME280;70042;52.494;5.502;2023-08-17T08:58:52;102278.41;;;22.25;63.49
80678;BME280;70042;52.494;5.502;2023-08-17T09:01:18;102274.81;;;22.26;63.54
80678;BME280;70042;52.494;5.502;2023-08-17T09:03:46;102276.59;;;22.27;63.33
80678;BME280;70042;52.494;5.502;2023-08-17T09:06:13;102279.25;;;22.25;63.10
80678;BME280;70042;52.494;5.502;2023-08-17T09:08:40;102285.47;;;22.26;63.54
80678;BME280;70042;52.494;5.502;2023-08-17T09:11:05;102276.59;;;22.27;63.45
80678;BME280;70042;52.494;5.502;2023-08-17T09:13:31;102271.31;;;22.24;63.39
80678;BME280;70042;52.494;5.502;2023-08-17T09:15:58;102284.50;;;22.30;63.42
80678;BME280;70042;52.494;5.502;2023-08-17T09:18:25;102271.25;;;22.27;63.55
80678;BME280;70042;52.494;5.502;2023-08-17T09:20:51;102266.81;;;22.27;63.65
80678;BME280;70042;52.494;5.502;2023-08-17T09:23:18;102264.09;;;22.29;63.51
80678;BME280;70042;52.494;5.502;2023-08-17T09:25:55;102265.88;;;22.30;63.43
80678;BME280;70042;52.494;5.502;2023-08-17T09:28:29;102261.41;;;22.30;63.47
80678;BME280;70042;52.494;5.502;2023-08-17T09:30:58;102270.31;;;22.29;63.59
80678;BME280;70042;52.494;5.502;2023-08-17T09:33:30;102264.09;;;22.29;63.69
80678;BME280;70042;52.494;5.502;2023-08-17T09:35:57;102278.34;;;22.28;63.85
80678;BME280;70042;52.494;5.502;2023-08-17T09:38:23;102262.38;;;22.28;63.63
80678;BME280;70042;52.494;5.502;2023-08-17T09:40:48;102262.38;;;22.28;63.88
80678;BME280;70042;52.494;5.502;2023-08-17T09:43:15;102261.41;;;22.30;63.52
80678;BME280;70042;52.494;5.502;2023-08-17T09:45:43;102253.44;;;22.29;63.51
80678;BME280;70042;52.494;5.502;2023-08-17T09:48:10;102252.56;;;22.30;63.55
80678;BME280;70042;52.494;5.502;2023-08-17T09:50:36;102252.50;;;22.31;63.57
80678;BME280;70042;52.494;5.502;2023-08-17T09:53:12;102239.16;;;22.33;63.59
80678;BME280;70042;52.494;5.502;2023-08-17T09:55:41;102236.44;;;22.36;63.21
80678;BME280;70042;52.494;5.502;2023-08-17T09:58:07;102245.22;;;22.40;63.57
80678;BME280;70042;52.494;5.502;2023-08-17T10:00:34;102239.84;;;22.41;63.43
80678;BME280;70042;52.494;5.502;2023-08-17T10:03:02;102247.78;;;22.44;63.47
80678;BME280;70042;52.494;5.502;2023-08-17T10:05:31;102246.03;;;22.43;63.49
80678;BME280;70042;52.494;5.502;2023-08-17T10:07:57;102245.19;;;22.41;63.78
80678;BME280;70042;52.494;5.502;2023-08-17T10:10:26;102240.81;;;22.39;63.57
80678;BME280;70042;52.494;5.502;2023-08-17T10:13:05;102238.16;;;22.39;63.66
80678;BME280;70042;52.494;5.502;2023-08-17T10:15:37;102233.63;;;22.42;63.52
80678;BME280;70042;52.494;5.502;2023-08-17T10:18:26;102227.34;;;22.45;63.54
80678;BME280;70042;52.494;5.502;2023-08-17T10:21:17;102227.34;;;22.46;63.48
80678;BME280;70042;52.494;5.502;2023-08-17T10:23:47;102223.72;;;22.49;63.24
80678;BME280;70042;52.494;5.502;2023-08-17T10:26:14;102222.84;;;22.48;63.33
80678;BME280;70042;52.494;5.502;2023-08-17T10:28:40;102222.84;;;22.48;63.40
80678;BME280;70042;52.494;5.502;2023-08-17T10:31:06;102228.09;;;22.51;63.31
80678;BME280;70042;52.494;5.502;2023-08-17T10:33:32;102222.75;;;22.51;63.41
80678;BME280;70042;52.494;5.502;2023-08-17T10:36:00;102220.97;;;22.53;63.39
80678;BME280;70042;52.494;5.502;2023-08-17T10:38:26;102230.69;;;22.54;63.14
80678;BME280;70042;52.494;5.502;2023-08-17T10:41:12;102231.63;;;22.53;63.08
80678;BME280;70042;52.494;5.502;2023-08-17T10:46:20;102226.22;;;22.56;63.14
80678;BME280;70042;52.494;5.502;2023-08-17T10:48:46;102222.59;;;22.59;63.14
80678;BME280;70042;52.494;5.502;2023-08-17T10:51:11;102223.47;;;22.59;62.93
80678;BME280;70042;52.494;5.502;2023-08-17T10:53:43;102218.16;;;22.59;63.04
80678;BME280;70042;52.494;5.502;2023-08-17T10:56:14;102226.09;;;22.61;62.75
80678;BME280;70042;52.494;5.502;2023-08-17T10:58:41;102222.63;;;22.57;63.24
80678;BME280;70042;52.494;5.502;2023-08-17T11:01:07;102220.81;;;22.59;63.04
80678;BME280;70042;52.494;5.502;2023-08-17T11:03:32;102226.13;;;22.59;63.10
80678;BME280;70042;52.494;5.502;2023-08-17T11:06:14;102226.13;;;22.59;63.04
80678;BME280;70042;52.494;5.502;2023-08-17T11:08:50;102224.31;;;22.61;63.04
80678;BME280;70042;52.494;5.502;2023-08-17T11:11:16;102223.41;;;22.62;63.06
80678;BME280;70042;52.494;5.502;2023-08-17T11:13:45;102228.75;;;22.61;63.18
80678;BME280;70042;52.494;5.502;2023-08-17T11:16:12;102215.34;;;22.64;63.20
80678;BME280;70042;52.494;5.502;2023-08-17T11:18:39;102219.81;;;22.63;63.21
80678;BME280;70042;52.494;5.502;2023-08-17T11:21:06;102223.34;;;22.64;63.25
80678;BME280;70042;52.494;5.502;2023-08-17T11:23:34;102221.56;;;22.64;63.07
80678;BME280;70042;52.494;5.502;2023-08-17T11:26:00;102215.34;;;22.64;63.22
80678;BME280;70042;52.494;5.502;2023-08-17T11:28:26;102210.97;;;22.63;63.32
80678;BME280;70042;52.494;5.502;2023-08-17T11:31:02;102213.66;;;22.60;63.37
80678;BME280;70042;52.494;5.502;2023-08-17T11:33:29;102212.81;;;22.59;63.39
80678;BME280;70042;52.494;5.502;2023-08-17T11:35:59;102213.66;;;22.61;63.19
80678;BME280;70042;52.494;5.502;2023-08-17T11:38:25;102210.97;;;22.61;63.30
80678;BME280;70042;52.494;5.502;2023-08-17T11:40:52;102210.09;;;22.62;63.21
80678;BME280;70042;52.494;5.502;2023-08-17T11:43:17;102207.38;;;22.65;63.20
80678;BME280;70042;52.494;5.502;2023-08-17T11:45:44;102202.91;;;22.64;63.38
80678;BME280;70042;52.494;5.502;2023-08-17T11:48:09;102210.03;;;22.65;63.19
80678;BME280;70042;52.494;5.502;2023-08-17T11:50:35;102205.56;;;22.64;63.49
80678;BME280;70042;52.494;5.502;2023-08-17T11:53:01;102207.38;;;22.64;63.20
80678;BME280;70042;52.494;5.502;2023-08-17T11:55:26;102203.81;;;22.63;63.16
80678;BME280;70042;52.494;5.502;2023-08-17T11:57:52;102205.59;;;22.66;62.98
80678;BME280;70042;52.494;5.502;2023-08-17T12:00:21;102204.72;;;22.65;63.08
80678;BME280;70042;52.494;5.502;2023-08-17T12:02:51;102210.03;;;22.65;63.39
80678;BME280;70042;52.494;5.502;2023-08-17T12:05:24;102210.91;;;22.64;63.33
80678;BME280;70042;52.494;5.502;2023-08-17T12:07:55;102217.13;;;22.65;63.14
80678;BME280;70042;52.494;5.502;2023-08-17T12:10:21;102206.47;;;22.63;63.29
80678;BME280;70042;52.494;5.502;2023-08-17T12:12:48;102211.81;;;22.63;63.45
80678;BME280;70042;52.494;5.502;2023-08-17T12:15:15;102210.09;;;22.62;63.61
80678;BME280;70042;52.494;5.502;2023-08-17T12:17:46;102211.81;;;22.63;63.30
80678;BME280;70042;52.494;5.502;2023-08-17T12:20:16;102201.16;;;22.63;63.23
80678;BME280;70042;52.494;5.502;2023-08-17T12:22:42;102203.00;;;22.61;63.35
80678;BME280;70042;52.494;5.502;2023-08-17T12:25:08;102201.16;;;22.63;63.36
80678;BME280;70042;52.494;5.502;2023-08-17T12:27:34;102202.03;;;22.64;63.55
80678;BME280;70042;52.494;5.502;2023-08-17T12:29:59;102203.78;;;22.66;63.24
80678;BME280;70042;52.494;5.502;2023-08-17T12:32:25;102192.22;;;22.67;63.29
80678;BME280;70042;52.494;5.502;2023-08-17T12:34:50;102178.00;;;22.68;63.17
80678;BME280;70042;52.494;5.502;2023-08-17T12:37:20;102185.03;;;22.69;63.36
80678;BME280;70042;52.494;5.502;2023-08-17T12:39:48;102176.22;;;22.69;63.38
80678;BME280;70042;52.494;5.502;2023-08-17T12:42:14;102177.06;;;22.69;63.53
80678;BME280;70042;52.494;5.502;2023-08-17T12:44:41;102173.50;;;22.70;63.14
80678;BME280;70042;52.494;5.502;2023-08-17T12:47:06;102175.25;;;22.71;63.01
80678;BME280;70042;52.494;5.502;2023-08-17T12:49:32;102178.78;;;22.72;63.15
80678;BME280;70042;52.494;5.502;2023-08-17T12:51:57;102182.25;;;22.75;63.27
80678;BME280;70042;52.494;5.502;2023-08-17T12:54:22;102183.16;;;22.74;62.98